Time;durP1;ratioP1;P1;durP2;ratioP2;P2;SDS_P1;SDS_P2;PMS_P1;PMS_P2;Temp;Humidity;BMP_temperature;BMP_pressure;BME280_temperature;BME280_humidity;BME280_pressure;Samples;Min_cycle;Max_cycle;Signal;HPM_P1;HPM_P2
2023/10/01 00:00:46;;;;;;;15.68;10.73;;;15.40;99.90;;;;;;4988003;28;20506;-73
2023/10/01 00:03:14;;;;;;;15.70;9.77;;;15.30;99.90;;;;;;4992289;28;20065;-73
2023/10/01 00:05:42;;;;;;;21.73;10.00;;;15.30;99.90;;;;;;5000740;28;20042;-73
2023/10/01 00:08:08;;;;;;;16.23;10.25;;;15.30;99.90;;;;;;4999448;28;20046;-73
2023/10/01 00:10:35;;;;;;;17.95;10.13;;;15.30;99.90;;;;;;4999584;28;20033;-73
2023/10/01 00:13:01;;;;;;;16.65;10.55;;;15.20;99.90;;;;;;4984449;28;20038;-73
2023/10/01 00:15:27;;;;;;;15.32;10.32;;;15.20;99.90;;;;;;4994813;28;20524;-73
2023/10/01 00:17:53;;;;;;;18.25;11.02;;;15.20;99.90;;;;;;4986938;28;20042;-73
2023/10/01 00:20:24;;;;;;;15.82;10.25;;;15.20;99.90;;;;;;5006829;28;20046;-73
2023/10/01 00:22:57;;;;;;;15.13;10.60;;;15.10;99.90;;;;;;5003580;28;20100;-73
2023/10/01 00:25:23;;;;;;;;;;;15.10;99.90;;;;;;5001911;28;20543;-73
2023/10/01 00:27:50;;;;;;;17.85;11.07;;;15.00;99.90;;;;;;5001758;28;19953;-73
2023/10/01 00:30:16;;;;;;;16.23;10.63;;;14.90;99.90;;;;;;4985249;28;20080;-73
2023/10/01 00:32:42;;;;;;;17.50;11.43;;;14.90;99.90;;;;;;4981041;28;20082;-73
2023/10/01 00:35:11;;;;;;;18.58;11.13;;;14.90;99.90;;;;;;4988091;28;20104;-73
2023/10/01 00:37:38;;;;;;;17.10;11.20;;;14.90;99.90;;;;;;4996724;28;20038;-73
2023/10/01 00:40:05;;;;;;;20.08;11.07;;;14.80;99.90;;;;;;4997629;28;20566;-72
2023/10/01 00:42:38;;;;;;;19.85;11.30;;;14.80;99.90;;;;;;4981917;28;20129;-73
2023/10/01 00:45:11;;;;;;;15.57;10.60;;;14.80;99.90;;;;;;4982039;28;20049;-73
2023/10/01 00:47:41;;;;;;;18.65;11.38;;;14.80;99.90;;;;;;4997548;28;20034;-73
2023/10/01 00:50:16;;;;;;;17.23;11.27;;;14.80;99.90;;;;;;4972516;28;20053;-73
2023/10/01 00:52:42;;;;;;;17.30;10.93;;;14.80;99.90;;;;;;5003355;28;20034;-73
2023/10/01 00:55:10;;;;;;;18.52;11.98;;;14.80;99.90;;;;;;4969597;28;20548;-73
2023/10/01 00:57:38;;;;;;;14.18;11.60;;;14.80;99.90;;;;;;4983581;28;20046;-73
2023/10/01 01:00:12;;;;;;;20.77;12.60;;;14.70;99.90;;;;;;4968247;28;20379;-73
2023/10/01 01:02:39;;;;;;;20.70;12.30;;;14.70;99.90;;;;;;4983717;28;20120;-73
2023/10/01 01:05:19;;;;;;;19.73;11.80;;;14.70;99.90;;;;;;4981233;28;20045;-73
2023/10/01 01:07:48;;;;;;;16.85;12.68;;;14.60;99.90;;;;;;4999933;28;20042;-73
2023/10/01 01:10:26;;;;;;;16.10;12.02;;;14.60;99.90;;;;;;4995534;28;20121;-73
2023/10/01 01:12:54;;;;;;;16.52;11.75;;;14.60;99.90;;;;;;5002214;28;20038;-73
2023/10/01 01:15:21;;;;;;;16.58;11.77;;;14.60;99.90;;;;;;4987897;28;20042;-73
2023/10/01 01:17:50;;;;;;;18.15;11.95;;;14.60;99.90;;;;;;5004882;28;20050;-73
2023/10/01 01:20:18;;;;;;;18.17;12.15;;;14.60;99.90;;;;;;4999397;28;20560;-73
2023/10/01 01:22:52;;;;;;;20.83;13.20;;;14.60;99.90;;;;;;5003906;28;20462;-73
2023/10/01 01:25:21;;;;;;;20.90;13.00;;;14.60;99.90;;;;;;5006498;28;20038;-73
2023/10/01 01:27:47;;;;;;;20.08;13.05;;;14.60;99.90;;;;;;4988060;28;20048;-73
2023/10/01 01:30:18;;;;;;;19.98;13.20;;;14.50;99.90;;;;;;4989449;28;20412;-74
2023/10/01 01:32:47;;;;;;;18.67;12.90;;;14.50;99.90;;;;;;4968317;28;20046;-73
2023/10/01 01:35:13;;;;;;;19.23;13.05;;;14.50;99.90;;;;;;4989443;28;20041;-73
2023/10/01 01:37:48;;;;;;;20.05;12.63;;;14.50;99.90;;;;;;4984686;28;20110;-73
2023/10/01 01:40:24;;;;;;;19.25;12.70;;;14.50;99.90;;;;;;4967856;28;20070;-73
2023/10/01 01:42:56;;;;;;;16.45;12.85;;;14.50;99.90;;;;;;5006283;28;20122;-73
2023/10/01 01:45:28;;;;;;;17.60;12.75;;;14.50;99.90;;;;;;4968160;28;20520;-72
2023/10/01 01:47:54;;;;;;;18.85;13.73;;;14.50;99.90;;;;;;5004309;28;20089;-73
2023/10/01 01:50:31;;;;;;;18.48;13.63;;;14.50;99.90;;;;;;4970622;28;20050;-73
2023/10/01 01:52:57;;;;;;;19.27;13.75;;;14.50;99.90;;;;;;4985767;28;20478;-73
2023/10/01 01:55:27;;;;;;;19.02;14.10;;;14.50;99.90;;;;;;4986296;28;20037;-73
2023/10/01 02:00:34;;;;;;;17.88;13.35;;;14.50;99.90;;;;;;5004194;28;20538;-73
2023/10/01 02:03:05;;;;;;;18.05;13.48;;;14.50;99.90;;;;;;4967145;28;20034;-73
2023/10/01 02:05:30;;;;;;;18.88;14.27;;;14.50;99.90;;;;;;5002736;28;20034;-73
2023/10/01 02:08:06;;;;;;;17.73;13.15;;;14.50;99.90;;;;;;4988600;28;20489;-73
2023/10/01 02:10:44;;;;;;;19.55;14.38;;;14.50;99.90;;;;;;4988552;28;20069;-73
2023/10/01 02:13:14;;;;;;;17.70;13.60;;;14.60;99.90;;;;;;4980585;28;20096;-73
2023/10/01 02:15:40;;;;;;;17.90;13.05;;;14.60;99.90;;;;;;4974857;28;20040;-73
2023/10/01 02:18:08;;;;;;;16.92;12.93;;;14.60;99.90;;;;;;4991949;28;20051;-73
2023/10/01 02:20:35;;;;;;;21.83;13.73;;;14.60;99.90;;;;;;4983354;28;20110;-73
2023/10/01 02:23:02;;;;;;;21.73;14.43;;;14.60;99.90;;;;;;4974434;28;20125;-74
2023/10/01 02:25:38;;;;;;;20.85;14.48;;;14.60;99.90;;;;;;4967802;28;20042;-73
2023/10/01 02:28:14;;;;;;;18.75;14.60;;;14.60;99.90;;;;;;4970827;28;20140;-73
2023/10/01 02:30:41;;;;;;;19.08;14.57;;;14.60;99.90;;;;;;4980787;28;20034;-73
2023/10/01 02:33:18;;;;;;;18.77;14.32;;;14.60;99.90;;;;;;5004964;28;20097;-73
2023/10/01 02:35:49;;;;;;;21.02;14.93;;;14.60;99.90;;;;;;4979855;28;20046;-73
2023/10/01 02:41:02;;;;;;;19.33;15.05;;;14.60;99.90;;;;;;4986950;28;20074;-73
2023/10/01 02:43:34;;;;;;;21.45;15.48;;;14.60;99.90;;;;;;4998197;28;20168;-72
2023/10/01 02:46:07;;;;;;;21.38;16.10;;;14.60;99.90;;;;;;4973701;28;20568;-72
2023/10/01 02:48:34;;;;;;;18.83;15.43;;;14.60;99.90;;;;;;4999417;28;20049;-72
2023/10/01 02:51:15;;;;;;;20.63;16.15;;;14.60;99.90;;;;;;5001896;28;20041;-72
2023/10/01 02:54:06;;;;;;;20.48;15.95;;;14.60;99.90;;;;;;4986069;28;20052;-72
2023/10/01 02:56:33;;;;;;;21.95;14.85;;;14.60;99.90;;;;;;5005149;28;20117;-72
2023/10/01 02:59:08;;;;;;;21.90;16.63;;;14.50;99.90;;;;;;4989237;28;20037;-72
2023/10/01 03:01:39;;;;;;;21.98;15.35;;;14.60;99.90;;;;;;5005252;28;20041;-72
2023/10/01 03:04:10;;;;;;;23.45;16.15;;;14.60;99.90;;;;;;4997892;28;20068;-72
2023/10/01 03:06:54;;;;;;;21.38;14.75;;;14.50;99.90;;;;;;4972617;28;20048;-72
2023/10/01 03:09:33;;;;;;;21.33;15.65;;;14.60;99.90;;;;;;4982683;28;20496;-72
2023/10/01 03:17:38;;;;;;;22.90;16.65;;;14.50;99.90;;;;;;4999806;28;20095;-72
2023/10/01 03:22:53;;;;;;;20.35;15.88;;;14.60;99.90;;;;;;4997134;28;20046;-72
2023/10/01 03:25:28;;;;;;;20.20;15.25;;;14.50;99.90;;;;;;5004572;28;20042;-72
2023/10/01 03:27:58;;;;;;;20.77;15.25;;;14.50;99.90;;;;;;4984281;28;20069;-72
2023/10/01 03:30:31;;;;;;;19.80;15.82;;;14.50;99.90;;;;;;4966004;28;20046;-72
2023/10/01 03:33:01;;;;;;;18.55;14.60;;;14.50;99.90;;;;;;4985977;28;20082;-72
2023/10/01 03:35:27;;;;;;;21.83;15.02;;;14.50;99.90;;;;;;5001220;28;20042;-72
2023/10/01 03:38:09;;;;;;;19.55;15.02;;;14.50;99.90;;;;;;4991975;28;20379;-72
2023/10/01 03:40:59;;;;;;;20.40;15.75;;;14.50;99.90;;;;;;4988193;28;20042;-72
2023/10/01 03:43:31;;;;;;;18.58;15.70;;;14.50;99.90;;;;;;4997442;28;20150;-72
2023/10/01 03:46:06;;;;;;;18.17;14.85;;;14.50;99.90;;;;;;5003288;28;20109;-72
2023/10/01 03:48:57;;;;;;;20.52;15.20;;;14.50;99.90;;;;;;5006801;28;20042;-72
2023/10/01 03:51:28;;;;;;;18.23;14.43;;;14.50;99.90;;;;;;4988369;28;20571;-72
2023/10/01 03:54:06;;;;;;;19.15;15.05;;;14.50;99.90;;;;;;4965302;28;20038;-72
2023/10/01 03:56:36;;;;;;;20.40;14.88;;;14.50;99.90;;;;;;4988871;28;20034;-72
2023/10/01 03:59:02;;;;;;;21.23;14.45;;;14.50;99.90;;;;;;5007380;28;20042;-72
2023/10/01 04:01:34;;;;;;;19.45;14.48;;;14.50;99.90;;;;;;4985834;28;20034;-72
2023/10/01 04:04:00;;;;;;;16.45;13.23;;;14.50;99.90;;;;;;5011126;28;20046;-72
2023/10/01 04:06:30;;;;;;;18.80;13.23;;;14.50;99.90;;;;;;4986924;28;20053;-73
2023/10/01 04:08:56;;;;;;;18.83;13.20;;;14.50;99.90;;;;;;4979748;28;20042;-72
2023/10/01 04:11:49;;;;;;;25.92;14.25;;;14.50;99.90;;;;;;4969782;28;20476;-72
2023/10/01 04:14:17;;;;;;;19.45;14.25;;;14.50;99.90;;;;;;4999571;28;20144;-72
2023/10/01 04:16:46;;;;;;;18.30;13.60;;;14.50;99.90;;;;;;4987270;28;20048;-72
2023/10/01 04:19:18;;;;;;;18.15;13.50;;;14.50;99.90;;;;;;4999735;28;20528;-72
2023/10/01 04:21:50;;;;;;;19.75;14.50;;;14.50;99.90;;;;;;4986172;28;20042;-72
2023/10/01 04:24:21;;;;;;;19.20;13.90;;;14.50;99.90;;;;;;4985490;28;20133;-72
2023/10/01 04:26:47;;;;;;;15.23;12.55;;;14.40;99.90;;;;;;4987719;28;20504;-72
2023/10/01 04:29:16;;;;;;;19.67;13.10;;;14.40;99.90;;;;;;4985225;28;20125;-72
2023/10/01 04:31:48;;;;;;;21.52;13.63;;;14.50;99.90;;;;;;4949723;28;20030;-72
2023/10/01 04:34:14;;;;;;;18.88;13.80;;;14.50;99.90;;;;;;5000687;28;20050;-72
2023/10/01 04:36:44;;;;;;;22.80;13.00;;;14.50;99.90;;;;;;4985207;28;20433;-72
2023/10/01 04:39:10;;;;;;;15.20;11.73;;;14.50;99.90;;;;;;4980644;28;20046;-72
2023/10/01 04:41:37;;;;;;;16.95;12.52;;;14.50;99.90;;;;;;4999828;28;20843;-72
2023/10/01 04:44:06;;;;;;;16.35;11.95;;;14.50;99.90;;;;;;4961575;28;20470;-72
2023/10/01 04:46:37;;;;;;;16.90;11.30;;;14.50;99.90;;;;;;4999408;28;20046;-72
2023/10/01 04:49:08;;;;;;;17.60;11.85;;;14.50;99.90;;;;;;4982704;28;20045;-72
2023/10/01 04:51:44;;;;;;;18.73;12.18;;;14.50;99.90;;;;;;5000048;28;20069;-72
2023/10/01 04:54:17;;;;;;;17.60;11.15;;;14.50;99.90;;;;;;5004229;28;20037;-72
2023/10/01 04:56:45;;;;;;;15.90;11.57;;;14.50;99.90;;;;;;5000070;28;20057;-73
2023/10/01 04:59:11;;;;;;;20.88;11.18;;;14.50;99.90;;;;;;4984511;28;20041;-73
2023/10/01 05:01:36;;;;;;;16.08;11.07;;;14.50;99.90;;;;;;4984490;28;20045;-72
2023/10/01 05:04:04;;;;;;;16.50;11.35;;;14.50;99.90;;;;;;5005806;28;20402;-72
2023/10/01 05:06:31;;;;;;;15.20;11.68;;;14.50;99.90;;;;;;4993215;28;20042;-73
2023/10/01 05:08:58;;;;;;;15.40;11.30;;;14.50;99.90;;;;;;4990447;28;20037;-72
2023/10/01 05:11:29;;;;;;;15.75;11.10;;;14.50;99.90;;;;;;4993432;28;20038;-73
2023/10/01 05:13:58;;;;;;;15.98;11.30;;;14.50;99.90;;;;;;5009841;28;20041;-72
2023/10/01 05:16:27;;;;;;;16.27;10.90;;;14.50;99.90;;;;;;5004572;28;20038;-72
2023/10/01 05:19:10;;;;;;;21.60;10.88;;;14.50;99.90;;;;;;4992210;28;20390;-72
2023/10/01 05:21:41;;;;;;;17.27;12.02;;;14.50;99.90;;;;;;4993722;28;20440;-72
2023/10/01 05:24:08;;;;;;;17.10;12.15;;;14.50;99.90;;;;;;4984017;28;20050;-72
2023/10/01 05:26:35;;;;;;;24.23;12.45;;;14.50;99.90;;;;;;4985371;28;20499;-72
2023/10/01 05:29:07;;;;;;;17.27;11.48;;;14.50;99.90;;;;;;4988125;28;20118;-72
2023/10/01 05:31:34;;;;;;;17.73;12.15;;;14.50;99.90;;;;;;4977396;28;20100;-72
2023/10/01 05:34:00;;;;;;;15.82;11.30;;;14.50;99.90;;;;;;4969739;28;20513;-72
2023/10/01 05:36:26;;;;;;;20.13;11.35;;;14.50;99.90;;;;;;5003116;28;20083;-72
2023/10/01 05:38:53;;;;;;;17.00;11.82;;;14.50;99.90;;;;;;4970614;28;20053;-72
2023/10/01 05:41:29;;;;;;;17.65;11.10;;;14.50;99.90;;;;;;5005258;28;20100;-72
2023/10/01 05:44:01;;;;;;;16.42;11.65;;;14.50;99.90;;;;;;4971209;28;20034;-72
2023/10/01 05:46:28;;;;;;;17.73;11.02;;;14.60;99.90;;;;;;5003285;28;20046;-72
2023/10/01 05:49:00;;;;;;;18.42;11.10;;;14.60;99.90;;;;;;4985970;28;20058;-72
2023/10/01 05:51:42;;;;;;;14.50;9.93;;;14.60;99.90;;;;;;4988159;28;20061;-73
2023/10/01 05:54:09;;;;;;;17.38;10.68;;;14.60;99.90;;;;;;5008332;28;20084;-72
2023/10/01 05:56:43;;;;;;;15.77;10.68;;;14.60;99.90;;;;;;4973147;28;20448;-72
2023/10/01 05:59:11;;;;;;;15.00;9.90;;;14.60;99.90;;;;;;4991814;28;20394;-72
2023/10/01 06:01:39;;;;;;;19.10;9.80;;;14.70;99.90;;;;;;4987852;28;20125;-72
2023/10/01 06:04:09;;;;;;;17.13;10.65;;;14.70;99.90;;;;;;5006594;28;20416;-72
2023/10/01 06:06:36;;;;;;;18.20;10.50;;;14.70;99.90;;;;;;4987578;28;20045;-72
2023/10/01 06:09:09;;;;;;;17.25;10.35;;;14.70;99.90;;;;;;4997634;28;20042;-72
2023/10/01 06:12:03;;;;;;;19.42;10.40;;;14.70;99.90;;;;;;5002910;28;20415;-73
2023/10/01 06:14:42;;;;;;;16.02;10.25;;;14.70;99.90;;;;;;4988839;28;20050;-72
2023/10/01 06:17:10;;;;;;;17.67;10.10;;;14.70;99.90;;;;;;4981578;28;20060;-72
2023/10/01 06:19:40;;;;;;;17.75;10.50;;;14.80;99.90;;;;;;5001145;28;20034;-72
2023/10/01 06:22:13;;;;;;;17.42;10.73;;;14.70;99.90;;;;;;4987883;28;20033;-72
2023/10/01 06:24:46;;;;;;;;;;;14.80;99.90;;;;;;4979417;28;20042;-72
2023/10/01 06:27:13;;;;;;;16.58;10.80;;;14.70;99.90;;;;;;4988291;28;19924;-73
2023/10/01 06:29:52;;;;;;;20.58;11.68;;;14.70;99.90;;;;;;4990666;28;20108;-73
2023/10/01 06:32:22;;;;;;;17.65;10.75;;;14.70;99.90;;;;;;4999560;28;20051;-72
2023/10/01 06:34:49;;;;;;;19.00;11.45;;;14.70;99.90;;;;;;5006040;28;20069;-72
2023/10/01 06:37:15;;;;;;;17.30;11.82;;;14.70;99.90;;;;;;5008846;28;20048;-72
2023/10/01 06:39:43;;;;;;;17.52;11.70;;;14.70;99.90;;;;;;4972406;28;20042;-72
2023/10/01 06:42:23;;;;;;;17.17;11.05;;;14.70;99.90;;;;;;4992977;28;20104;-72
2023/10/01 06:44:54;;;;;;;15.30;11.63;;;14.70;99.90;;;;;;4953483;28;20061;-73
2023/10/01 06:47:26;;;;;;;20.38;11.88;;;14.70;99.90;;;;;;4998259;28;20124;-73
2023/10/01 06:52:34;;;;;;;18.95;11.80;;;14.70;99.90;;;;;;5000429;28;20041;-72
2023/10/01 06:55:01;;;;;;;18.55;12.40;;;14.70;99.90;;;;;;4998809;28;20401;-72
2023/10/01 06:57:31;;;;;;;20.73;11.13;;;14.80;99.90;;;;;;4999466;28;20038;-73
2023/10/01 06:59:56;;;;;;;18.98;12.00;;;14.70;99.90;;;;;;4979764;28;20456;-73
2023/10/01 07:02:27;;;;;;;20.02;12.02;;;14.70;99.90;;;;;;5001987;28;20026;-72
2023/10/01 07:04:58;;;;;;;16.90;12.70;;;14.70;99.90;;;;;;5002936;28;20374;-72
2023/10/01 07:07:24;;;;;;;20.60;12.95;;;14.60;99.90;;;;;;5001869;28;20057;-73
2023/10/01 07:09:53;;;;;;;17.67;12.70;;;14.60;99.90;;;;;;4985340;28;20503;-72
2023/10/01 07:12:20;;;;;;;21.83;14.52;;;14.60;99.90;;;;;;4985703;28;20041;-72
2023/10/01 07:14:50;;;;;;;21.48;13.40;;;14.60;99.90;;;;;;4984849;28;20042;-73
2023/10/01 07:17:19;;;;;;;19.90;13.75;;;14.60;99.90;;;;;;4988624;28;20046;-73
2023/10/01 07:19:46;;;;;;;18.73;13.77;;;14.60;99.90;;;;;;4984338;28;20081;-72
2023/10/01 07:22:15;;;;;;;21.80;13.93;;;14.60;99.90;;;;;;4984616;28;20049;-73
2023/10/01 07:24:41;;;;;;;18.08;12.52;;;14.60;99.90;;;;;;4995923;28;20038;-73
2023/10/01 07:27:11;;;;;;;18.75;12.85;;;14.50;99.90;;;;;;5002756;28;20117;-73
2023/10/01 07:29:44;;;;;;;20.48;12.57;;;14.50;99.90;;;;;;4984324;28;20034;-73
2023/10/01 07:32:12;;;;;;;22.00;13.38;;;14.50;99.90;;;;;;4968914;28;20369;-73
2023/10/01 07:34:39;;;;;;;19.67;13.77;;;14.50;99.90;;;;;;4982164;28;20065;-72
2023/10/01 07:37:23;;;;;;;22.05;13.45;;;14.50;99.90;;;;;;5002418;28;20616;-73
2023/10/01 07:40:01;;;;;;;20.52;13.15;;;14.50;99.90;;;;;;4986223;28;20042;-73
2023/10/01 07:42:27;;;;;;;19.25;12.60;;;14.50;99.90;;;;;;5008590;28;20045;-73
2023/10/01 07:44:53;;;;;;;18.10;12.40;;;14.50;99.90;;;;;;4998802;28;20046;-73
2023/10/01 07:47:28;;;;;;;22.05;13.63;;;14.50;99.90;;;;;;4994023;28;20080;-73
2023/10/01 07:49:56;;;;;;;18.60;12.82;;;14.60;99.90;;;;;;5001450;28;20030;-72
2023/10/01 07:52:23;;;;;;;20.98;12.32;;;14.60;99.90;;;;;;4991848;28;20038;-72
2023/10/01 07:54:49;;;;;;;19.33;11.63;;;14.70;99.90;;;;;;4987479;28;20452;-72
2023/10/01 07:57:17;;;;;;;18.20;11.98;;;14.80;99.90;;;;;;5008429;28;20099;-72
2023/10/01 07:59:43;;;;;;;17.63;11.05;;;14.90;99.90;;;;;;5002864;28;20125;-72
2023/10/01 08:07:17;;;;;;;17.98;10.95;;;15.00;99.90;;;;;;4994725;28;20100;-75
2023/10/01 08:09:51;;;;;;;16.73;11.48;;;15.00;99.90;;;;;;5001004;28;20641;-72
2023/10/01 08:12:19;;;;;;;16.98;11.13;;;15.10;99.90;;;;;;4989584;28;20033;-72
2023/10/01 08:15:15;;;;;;;15.73;10.13;;;15.10;99.90;;;;;;4979494;28;20540;-73
2023/10/01 08:17:34;;;;;;;15.77;10.77;;;15.20;99.90;;;;;;5005108;28;20049;-73
2023/10/01 08:20:17;;;;;;;15.73;10.40;;;15.20;99.90;;;;;;4983959;28;20073;-73
2023/10/01 08:23:12;;;;;;;15.10;10.43;;;15.30;99.90;;;;;;4990340;28;20049;-72
2023/10/01 08:25:42;;;;;;;18.58;9.77;;;15.40;99.90;;;;;;4994183;28;20053;-72
2023/10/01 08:30:43;;;;;;;14.45;10.23;;;15.50;99.90;;;;;;4983580;28;20033;-72
2023/10/01 08:33:32;;;;;;;19.45;10.70;;;15.50;99.90;;;;;;4985588;28;20521;-72
2023/10/01 08:36:14;;;;;;;16.38;10.60;;;15.50;99.90;;;;;;5005439;28;20053;-72
2023/10/01 08:38:47;;;;;;;15.27;10.30;;;15.60;99.90;;;;;;5008858;28;20041;-72
2023/10/01 08:41:32;;;;;;;16.30;10.18;;;15.60;99.90;;;;;;4993745;28;20046;-73
2023/10/01 08:44:09;;;;;;;17.33;10.43;;;15.70;99.90;;;;;;5006707;28;20366;-72
2023/10/01 08:46:39;;;;;;;14.50;8.70;;;15.70;99.90;;;;;;4981610;28;20745;-72
2023/10/01 08:49:22;;;;;;;13.85;9.40;;;15.80;99.90;;;;;;4990086;28;20687;-72
2023/10/01 08:51:52;;;;;;;17.17;9.60;;;15.80;99.90;;;;;;5006679;28;20129;-72
2023/10/01 08:54:23;;;;;;;21.60;10.10;;;15.80;99.90;;;;;;4997563;28;20034;-72
2023/10/01 08:56:49;;;;;;;15.80;9.90;;;15.90;99.90;;;;;;5013002;28;20404;-72
2023/10/01 08:59:23;;;;;;;14.52;8.95;;;15.90;99.90;;;;;;4989715;28;20470;-72
2023/10/01 09:01:52;;;;;;;16.05;9.18;;;16.00;99.90;;;;;;4957979;28;20038;-73
2023/10/01 09:04:44;;;;;;;14.27;9.23;;;16.00;99.90;;;;;;4991199;28;20480;-72
2023/10/01 09:07:19;;;;;;;15.48;9.43;;;16.10;99.90;;;;;;5009077;28;20543;-72
2023/10/01 09:10:09;;;;;;;13.88;9.38;;;16.20;99.90;;;;;;5005247;28;20433;-73
2023/10/01 09:12:35;;;;;;;19.00;10.07;;;16.30;99.90;;;;;;4982925;28;20425;-74
2023/10/01 09:15:05;;;;;;;15.18;9.45;;;16.30;99.90;;;;;;4998707;28;20048;-74
2023/10/01 09:17:40;;;;;;;15.18;8.52;;;16.30;99.90;;;;;;4996647;28;20050;-74
2023/10/01 09:20:09;;;;;;;15.68;9.82;;;16.40;99.90;;;;;;4983283;28;20073;-73
2023/10/01 09:25:25;;;;;;;16.50;9.15;;;16.50;99.90;;;;;;5011811;28;20104;-72
2023/10/01 09:27:59;;;;;;;14.85;9.15;;;16.60;99.90;;;;;;4996361;28;20050;-73
2023/10/01 09:30:31;;;;;;;17.50;9.80;;;16.70;99.90;;;;;;5010956;28;20066;-72
2023/10/01 09:33:04;;;;;;;15.27;8.05;;;16.80;99.90;;;;;;5002138;28;20089;-73
2023/10/01 09:35:49;;;;;;;17.48;10.10;;;17.00;99.90;;;;;;5004081;28;20046;-73
2023/10/01 09:38:18;;;;;;;17.25;9.32;;;17.20;99.90;;;;;;4990804;28;20088;-75
2023/10/01 09:40:46;;;;;;;15.13;9.20;;;17.30;99.90;;;;;;5005468;28;20070;-74
2023/10/01 09:43:19;;;;;;;13.45;8.80;;;17.50;99.90;;;;;;5004556;28;20061;-75
2023/10/01 09:45:49;;;;;;;14.93;8.55;;;17.60;99.90;;;;;;4984122;28;20049;-80
2023/10/01 09:48:29;;;;;;;18.23;10.05;;;17.80;99.90;;;;;;5006806;28;20042;-75
2023/10/01 09:51:08;;;;;;;19.98;8.63;;;17.80;99.90;;;;;;5003314;28;20573;-76
2023/10/01 09:53:50;;;;;;;15.23;9.57;;;17.90;99.90;;;;;;5000757;28;20042;-76
2023/10/01 09:56:29;;;;;;;18.58;10.10;;;17.80;99.90;;;;;;5002694;28;20485;-75
2023/10/01 09:58:58;;;;;;;16.33;9.20;;;17.80;99.90;;;;;;5007011;28;20120;-75
2023/10/01 10:01:27;;;;;;;15.25;9.45;;;17.80;99.90;;;;;;5005732;28;20125;-75
2023/10/01 10:03:56;;;;;;;14.65;8.80;;;17.70;99.90;;;;;;4990403;28;20042;-76
2023/10/01 10:06:25;;;;;;;15.98;9.35;;;17.70;99.90;;;;;;4991386;28;20157;-75
2023/10/01 10:09:03;;;;;;;15.05;8.32;;;17.80;99.90;;;;;;5003780;28;20048;-75
2023/10/01 10:11:40;;;;;;;19.13;9.10;;;18.00;99.90;;;;;;4988833;28;20563;-75
2023/10/01 10:14:25;;;;;;;21.80;9.77;;;18.10;99.90;;;;;;4999519;28;20042;-75
2023/10/01 10:20:15;;;;;;;18.00;9.85;;;18.00;99.90;;;;;;5007216;28;20038;-75
2023/10/01 10:23:13;;;;;;;16.52;9.13;;;18.00;99.90;;;;;;4984664;28;20034;-75
2023/10/01 10:25:48;;;;;;;15.48;9.15;;;18.00;99.90;;;;;;5008087;28;20543;-75
2023/10/01 10:28:24;;;;;;;14.40;8.85;;;18.00;99.90;;;;;;4985331;28;20120;-75
2023/10/01 10:31:36;;;;;;;14.95;9.30;;;18.00;99.90;;;;;;5000737;28;20464;-74
2023/10/01 10:34:24;;;;;;;16.67;9.57;;;18.00;99.90;;;;;;5005172;28;20046;-75
2023/10/01 10:36:50;;;;;;;18.63;9.80;;;18.10;99.90;;;;;;5003001;28;20426;-75
2023/10/01 10:39:45;;;;;;;14.50;9.75;;;18.20;99.90;;;;;;5002502;28;20034;-74
2023/10/01 10:42:29;;;;;;;16.98;9.05;;;18.30;99.90;;;;;;4983849;28;20069;-75
2023/10/01 10:45:24;;;;;;;20.42;9.10;;;18.40;99.90;;;;;;4982965;28;20115;-75
2023/10/01 10:48:00;;;;;;;19.05;9.02;;;18.60;99.90;;;;;;4988017;28;20041;-75
2023/10/01 10:50:44;;;;;;;15.35;8.75;;;18.70;99.90;;;;;;5010451;28;20033;-75
2023/10/01 10:53:17;;;;;;;15.05;8.85;;;18.80;99.90;;;;;;5005440;28;20042;-75
2023/10/01 10:56:04;;;;;;;16.05;8.98;;;18.90;99.90;;;;;;5011942;28;20116;-75
2023/10/01 10:59:01;;;;;;;16.42;9.20;;;19.00;99.90;;;;;;5012248;28;20060;-75
2023/10/01 11:01:43;;;;;;;18.20;9.55;;;19.00;99.90;;;;;;4999409;28;20085;-75
2023/10/01 11:04:12;;;;;;;14.60;9.30;;;19.20;99.90;;;;;;4985635;28;20042;-90
2023/10/01 11:06:47;;;;;;;17.63;8.95;;;19.30;99.90;;;;;;4991514;28;20069;-75
2023/10/01 11:09:26;;;;;;;13.07;8.10;;;19.40;99.90;;;;;;4986586;28;20046;-75
2023/10/01 11:12:05;;;;;;;15.07;8.68;;;19.40;99.90;;;;;;4991748;28;20037;-74
2023/10/01 11:14:42;;;;;;;17.35;9.43;;;19.50;99.90;;;;;;5008554;28;20408;-74
2023/10/01 11:17:08;;;;;;;14.27;8.82;;;19.60;99.90;;;;;;4984494;28;20048;-75
2023/10/01 11:19:36;;;;;;;15.02;8.75;;;19.60;99.90;;;;;;4977519;28;20034;-75
2023/10/01 11:22:05;;;;;;;19.30;9.15;;;19.60;99.90;;;;;;4983437;28;20073;-75
2023/10/01 11:24:36;;;;;;;19.25;9.30;;;19.60;99.90;;;;;;4986066;28;20030;-75
2023/10/01 11:27:19;;;;;;;16.57;9.47;;;19.60;99.90;;;;;;4984636;28;20125;-75
2023/10/01 11:30:19;;;;;;;17.35;9.10;;;19.60;99.90;;;;;;5000162;28;20489;-74
2023/10/01 11:35:38;;;;;;;14.52;8.55;;;19.70;99.90;;;;;;5004909;28;20049;-75
2023/10/01 11:38:19;;;;;;;18.50;9.27;;;19.80;99.90;;;;;;5006100;28;20131;-76
2023/10/01 11:41:08;;;;;;;14.55;8.45;;;19.90;99.90;;;;;;5004857;28;20049;-75
2023/10/01 11:43:58;;;;;;;14.80;8.85;;;19.90;99.90;;;;;;4998558;28;20116;-75
2023/10/01 11:46:29;;;;;;;15.82;9.13;;;20.00;99.90;;;;;;4966942;28;20042;-76
2023/10/01 11:49:10;;;;;;;18.63;8.98;;;20.00;99.90;;;;;;4988955;28;20046;-75
2023/10/01 11:51:50;;;;;;;16.23;8.98;;;20.00;99.90;;;;;;4991746;28;20465;-76
2023/10/01 11:54:18;;;;;;;13.15;8.45;;;20.00;99.90;;;;;;5009175;28;20041;-76
2023/10/01 11:57:04;;;;;;;14.48;8.52;;;20.00;99.90;;;;;;4984401;28;20540;-76
2023/10/01 11:59:41;;;;;;;15.07;9.18;;;20.10;99.90;;;;;;5005192;28;20038;-76
2023/10/01 12:02:20;;;;;;;18.45;8.90;;;20.10;99.90;;;;;;4978916;28;20048;-75
2023/10/01 12:04:59;;;;;;;16.80;8.98;;;20.10;99.90;;;;;;4993599;28;20526;-75
2023/10/01 12:07:31;;;;;;;15.82;7.88;;;20.20;99.90;;;;;;4988202;28;20081;-75
2023/10/01 12:09:59;;;;;;;13.35;8.15;;;20.20;99.90;;;;;;5010598;28;20038;-75
2023/10/01 12:12:39;;;;;;;13.95;7.57;;;20.20;99.90;;;;;;4980994;28;20052;-76
2023/10/01 12:17:51;;;;;;;15.77;8.38;;;20.40;99.90;;;;;;4993310;28;20421;-76
2023/10/01 12:20:22;;;;;;;15.85;9.07;;;20.50;99.90;;;;;;4994358;28;20041;-75
2023/10/01 12:23:10;;;;;;;14.17;7.90;;;20.60;99.90;;;;;;4978033;28;20176;-75
2023/10/01 12:25:46;;;;;;;13.20;7.90;;;20.60;99.90;;;;;;5001195;28;20046;-75
2023/10/01 12:28:17;;;;;;;14.35;7.82;;;20.60;99.90;;;;;;5010047;28;20049;-76
2023/10/01 12:30:58;;;;;;;12.70;8.27;;;20.70;99.90;;;;;;4993087;28;20038;-76
2023/10/01 12:33:38;;;;;;;15.65;8.23;;;20.80;99.90;;;;;;4994904;28;20550;-75
2023/10/01 12:36:31;;;;;;;13.57;7.72;;;20.80;99.90;;;;;;4983609;28;20045;-75
2023/10/01 12:41:47;;;;;;;12.90;7.55;;;20.90;99.90;;;;;;5008422;28;20140;-75
2023/10/01 12:44:33;;;;;;;15.43;8.13;;;20.90;99.90;;;;;;4983956;28;20126;-76
2023/10/01 12:47:03;;;;;;;12.52;7.63;;;20.90;99.90;;;;;;4999250;28;20046;-75
2023/10/01 12:49:32;;;;;;;14.00;7.78;;;21.00;99.90;;;;;;4988112;28;20052;-76
2023/10/01 12:52:03;;;;;;;11.60;7.45;;;21.00;99.90;;;;;;4983098;28;20042;-75
2023/10/01 12:54:28;;;;;;;12.95;7.53;;;21.10;99.90;;;;;;5006796;28;20054;-75
2023/10/01 12:57:12;;;;;;;14.70;7.70;;;21.20;99.90;;;;;;4993990;28;20089;-75
2023/10/01 12:59:41;;;;;;;13.27;7.20;;;21.30;99.90;;;;;;4969182;28;20038;-75
2023/10/01 13:07:45;;;;;;;12.68;7.72;;;21.60;99.90;;;;;;5001351;28;20093;-75
2023/10/01 13:10:12;;;;;;;14.20;7.43;;;21.60;99.90;;;;;;4989421;28;20121;-75
2023/10/01 13:12:39;;;;;;;13.27;7.35;;;21.70;99.90;;;;;;4988492;28;20053;-75
2023/10/01 13:15:18;;;;;;;12.40;6.72;;;21.70;99.90;;;;;;4994279;28;20452;-75
2023/10/01 13:17:44;;;;;;;13.93;7.63;;;21.80;99.90;;;;;;5005832;28;20507;-75
2023/10/01 13:20:25;;;;;;;12.43;7.10;;;21.90;99.90;;;;;;4976964;28;20078;-75
2023/10/01 13:22:52;;;;;;;10.48;6.57;;;22.00;99.90;;;;;;4970285;28;20104;-75
2023/10/01 13:25:24;;;;;;;12.48;6.90;;;22.00;99.90;;;;;;4996130;28;20135;-75
2023/10/01 13:28:01;;;;;;;11.55;6.28;;;22.10;99.90;;;;;;4979011;28;20081;-75
2023/10/01 13:30:30;;;;;;;11.23;6.07;;;22.20;99.90;;;;;;4997204;28;20400;-75
2023/10/01 13:33:14;;;;;;;11.57;6.28;;;22.30;99.90;;;;;;5002771;28;20085;-75
2023/10/01 13:35:52;;;;;;;11.40;6.47;;;22.40;99.90;;;;;;4994617;28;20030;-75
2023/10/01 13:38:37;;;;;;;15.02;7.13;;;22.30;99.90;;;;;;4988536;28;20516;-75
2023/10/01 14:10:54;;;;;;;13.82;10.13;;;22.80;99.90;;;;;;4987246;28;20551;-76
2023/10/01 14:13:35;;;;;;;12.07;7.63;;;22.80;99.90;;;;;;4984373;28;20045;-76